Hatboro, PA (19040)

10:16 AM EST on December 06, 2016 (GMT -0500)
Hatboro | | Change Station

Elev 266 ft 40.19 °N, 75.11 °W | Updated 22 seconds ago

Clear
Clear
39.9 °F
Feels Like 40 °F
N
1.0
Wind Variable Wind from ESE

Today
High -- | Low -- °F
--% Chance of Precip.
Yesterday
High -- | Low -- °F
Precip. -- in
Pressure 30.15 in
Visibility 10.0 miles
Clouds Clear
Windchill 40 °F
Dew Point 33 °F
Humidity 78%
Rainfall 0.00 in
Snow Depth Not available.
7:08 AM 4:34 PM
Waxing Crescent, 42% visible
METAR KPNE 061454Z AUTO 06008KT 10SM CLR 05/00 A3015 RMK AO2 SLP209 T00500000 50002 TSNO
Pressure 30.15 in
Visibility 10.0 miles
Clouds Clear
Windchill 40 °F
Dew Point 33 °F
Humidity 78%
Rainfall 0.00 in
Snow Depth Not available.
7:08 AM 4:34 PM
Waxing Crescent, 42% visible
METAR KPNE 061454Z AUTO 06008KT 10SM CLR 05/00 A3015 RMK AO2 SLP209 T00500000 50002 TSNO

10-Day Weather Forecast

Almanac

Astronomy

Dec. 06, 2016 Rise Set
Actual Time
Civil Twilight
Nautical Twilight
Astronomical Twilight
Moon
Length of Visible Light
Length of Day
Tomorrow will be .
, % of the Moon is Illuminated

Today's Extremes

State Highs State Lows

Community

WunderPhotos

Upload Photos

1,955,954 photos uploaded!

WunderBlog® & News

Nearby

Air Quality

  Air Quality AQ Index Pollutant
Not available.

Snow Depth

Station Depth Elevation

Earthquake Activity

City Distance Mag. Time & Date
Minimum magnitude displayed is 2.5.

Coastal Water Temperatures

Place Temperature

Stations

Nearby Weather Stations

Station Location Temp. Windchill Dew Point Humidity Wind Precip. Elev Updated Type
                   

Watches & Warnings

There are currently no watches in effect.